createdAt,value
2023-02-19T00:01:24.465Z,25.45
2023-02-19T00:09:32.610Z,23.20
2023-02-19T00:17:38.026Z,28.05
2023-02-19T00:25:46.092Z,23.08
2023-02-19T00:33:54.819Z,21.65
2023-02-19T00:42:03.731Z,24.23
2023-02-19T00:50:10.345Z,26.98
2023-02-19T00:58:18.544Z,25.65
2023-02-19T01:06:24.781Z,27.48
2023-02-19T01:14:33.000Z,27.00
2023-02-19T01:22:41.339Z,25.08
2023-02-19T01:30:49.388Z,24.27
2023-02-19T01:38:55.097Z,20.65
2023-02-19T01:47:03.186Z,21.08
2023-02-19T01:55:11.139Z,20.02
2023-02-19T02:03:19.241Z,19.70
2023-02-19T02:11:24.871Z,18.83
2023-02-19T02:19:54.412Z,18.90
2023-02-19T02:28:15.575Z,25.38
2023-02-19T02:36:30.074Z,18.95
2023-02-19T02:44:38.354Z,21.60
2023-02-19T02:53:00.413Z,21.35
2023-02-19T03:01:22.444Z,19.35
2023-02-19T03:09:43.389Z,18.83
2023-02-19T03:18:24.358Z,19.83
2023-02-19T03:26:34.758Z,17.98
2023-02-19T03:34:44.649Z,17.83
2023-02-19T03:42:59.260Z,18.98
2023-02-19T03:51:17.669Z,17.02
2023-02-19T03:59:35.223Z,16.83
2023-02-19T04:07:44.929Z,20.35
2023-02-19T04:15:56.624Z,19.65
2023-02-19T04:24:05.698Z,17.05
2023-02-19T04:32:14.928Z,16.58
2023-02-19T04:40:20.574Z,18.25
2023-02-19T04:48:28.630Z,16.83
2023-02-19T04:56:34.113Z,16.38
2023-02-19T05:04:42.154Z,18.30
2023-02-19T05:12:47.484Z,18.55
2023-02-19T05:20:56.310Z,19.42
2023-02-19T05:29:02.437Z,18.48
2023-02-19T05:37:10.395Z,17.77
2023-02-19T05:45:15.736Z,17.30
2023-02-19T05:53:23.709Z,17.75
2023-02-19T06:01:31.308Z,18.70
2023-02-19T06:09:39.385Z,20.00
2023-02-19T06:17:44.680Z,22.27
2023-02-19T06:25:52.681Z,23.15
2023-02-19T06:33:58.079Z,22.67
2023-02-19T06:42:06.117Z,24.65
2023-02-19T06:50:11.904Z,21.48
2023-02-19T06:58:19.966Z,22.40
2023-02-19T07:06:26.378Z,22.08
2023-02-19T07:14:34.561Z,22.63
2023-02-19T07:22:40.020Z,20.52
2023-02-19T07:30:48.141Z,20.17
2023-02-19T07:38:57.917Z,21.08
2023-02-19T07:47:05.818Z,18.55
2023-02-19T07:55:11.345Z,17.23
2023-02-19T08:03:19.374Z,14.93
2023-02-19T08:11:37.205Z,16.42
2023-02-19T08:19:45.593Z,13.43
2023-02-19T08:27:51.021Z,14.88
2023-02-19T08:35:59.048Z,13.02
2023-02-19T08:44:04.499Z,10.55
2023-02-19T08:52:12.526Z,8.75
2023-02-19T09:00:18.960Z,9.65
2023-02-19T09:08:27.494Z,12.43
2023-02-19T09:16:32.764Z,8.75
2023-02-19T09:24:40.709Z,8.27
2023-02-19T09:32:46.278Z,5.43
2023-02-19T09:40:54.363Z,8.18
2023-02-19T09:49:06.151Z,11.77
2023-02-19T09:57:18.834Z,11.32
2023-02-19T10:05:26.337Z,14.02
2023-02-19T10:13:37.643Z,14.63
2023-02-19T10:21:43.340Z,12.75
2023-02-19T10:29:52.923Z,13.13
2023-02-19T10:37:58.892Z,13.32
2023-02-19T10:46:10.296Z,11.07
2023-02-19T10:54:20.712Z,13.63
2023-02-19T11:02:29.878Z,8.25
2023-02-19T11:10:44.620Z,12.23
2023-02-19T11:18:58.036Z,8.63
2023-02-19T11:27:05.639Z,7.15
2023-02-19T11:35:25.327Z,10.75
2023-02-19T11:43:52.966Z,8.15
2023-02-19T11:52:28.665Z,9.35
2023-02-19T12:00:44.118Z,10.18
2023-02-19T12:09:18.331Z,7.85
2023-02-19T12:17:43.732Z,7.93
2023-02-19T12:26:04.686Z,5.30
2023-02-19T12:34:51.526Z,4.20
2023-02-19T12:43:17.288Z,3.50
2023-02-19T12:51:28.883Z,5.05
2023-02-19T12:59:41.046Z,5.78
2023-02-19T13:07:53.380Z,6.22
2023-02-19T13:16:05.843Z,5.40
2023-02-19T13:24:14.771Z,5.07
2023-02-19T13:32:48.767Z,4.97
2023-02-19T13:40:59.199Z,2.90
2023-02-19T13:49:47.660Z,2.25
2023-02-19T13:57:53.097Z,4.18
2023-02-19T14:06:06.791Z,1.83
2023-02-19T14:14:28.859Z,3.92
2023-02-19T14:23:12.880Z,1.80
2023-02-19T14:31:36.319Z,2.47
2023-02-19T14:39:43.459Z,4.72
2023-02-19T14:47:54.024Z,2.45
2023-02-19T14:56:00.587Z,2.40
2023-02-19T15:04:09.860Z,5.15
2023-02-19T15:12:20.193Z,2.30
2023-02-19T15:20:31.507Z,2.25
2023-02-19T15:28:37.518Z,6.32
2023-02-19T15:36:53.148Z,3.97
2023-02-19T15:45:11.458Z,7.70
2023-02-19T15:53:22.275Z,5.68
2023-02-19T16:01:30.849Z,4.45
2023-02-19T16:09:40.721Z,4.30
2023-02-19T16:18:25.709Z,3.40
2023-02-19T16:27:07.406Z,5.40
2023-02-19T16:35:38.197Z,11.93
2023-02-19T16:43:47.034Z,6.70
2023-02-19T16:51:53.959Z,7.53
2023-02-19T17:00:01.970Z,9.80
2023-02-19T17:08:31.634Z,6.70
2023-02-19T17:16:40.714Z,9.57
2023-02-19T17:24:46.574Z,14.20
2023-02-19T17:32:54.549Z,10.27
2023-02-19T17:40:59.870Z,19.95
2023-02-19T17:49:07.921Z,13.45
2023-02-19T17:57:13.525Z,19.33
2023-02-19T18:05:21.888Z,16.77
2023-02-19T18:13:27.791Z,17.88
2023-02-19T18:21:36.236Z,21.85
2023-02-19T18:29:41.915Z,31.38
2023-02-19T18:38:02.212Z,24.00
2023-02-19T18:46:10.603Z,25.58
2023-02-19T18:54:18.889Z,26.30
2023-02-19T19:02:24.822Z,30.67
2023-02-19T19:10:33.416Z,22.50
2023-02-19T19:18:39.170Z,14.13
2023-02-19T19:26:50.336Z,13.38
2023-02-19T19:34:58.002Z,16.13
2023-02-19T19:43:06.644Z,18.33
2023-02-19T19:51:12.233Z,19.27
2023-02-19T19:59:23.363Z,19.80
2023-02-19T20:07:31.840Z,23.48
2023-02-19T20:15:39.978Z,18.80
2023-02-19T20:23:45.447Z,13.80
2023-02-19T20:31:56.584Z,6.75
2023-02-19T20:40:02.380Z,5.82
2023-02-19T20:48:10.507Z,4.45
2023-02-19T20:56:16.120Z,4.05
2023-02-19T21:04:24.075Z,4.53
2023-02-19T21:12:29.539Z,4.68
2023-02-19T21:20:37.831Z,3.63
2023-02-19T21:28:43.855Z,3.42
2023-02-19T21:36:52.148Z,3.60
2023-02-19T21:44:58.232Z,2.28
2023-02-19T21:53:06.692Z,3.10
2023-02-19T22:01:12.905Z,2.78
2023-02-19T22:09:21.243Z,4.07
2023-02-19T22:17:26.545Z,2.97
2023-02-19T22:25:35.167Z,5.88
2023-02-19T22:33:40.881Z,1.98
2023-02-19T22:41:49.601Z,2.33
2023-02-19T22:49:55.070Z,4.20
2023-02-19T22:58:03.513Z,3.22
2023-02-19T23:06:09.494Z,3.15
2023-02-19T23:14:20.994Z,2.88
2023-02-19T23:22:26.419Z,2.97
2023-02-19T23:30:36.555Z,1.20
2023-02-19T23:38:42.060Z,1.67
2023-02-19T23:46:50.644Z,1.05
2023-02-19T23:54:56.175Z,1.40
